Time;durP1;ratioP1;P1;durP2;ratioP2;P2;SDS_P1;SDS_P2;PMS_P1;PMS_P2;Temp;Humidity;BMP_temperature;BMP_pressure;BME280_temperature;BME280_humidity;BME280_pressure;Samples;Min_cycle;Max_cycle;Signal;HPM_P1;HPM_P2
2023/02/11 00:00:32;;;;;;;31.83;7.03;;;6.00;99.90;;;;;;6183664;23;20444;-80
2023/02/11 00:02:57;;;;;;;44.58;6.78;;;6.20;99.90;;;;;;6186057;23;20024;-82
2023/02/11 00:05:23;;;;;;;34.53;6.45;;;6.30;99.90;;;;;;6164912;23;20048;-83
2023/02/11 00:07:49;;;;;;;30.00;6.25;;;5.90;99.90;;;;;;6188597;23;20023;-84
2023/02/11 00:10:14;;;;;;;41.55;7.22;;;6.10;99.90;;;;;;6164243;23;20020;-83
2023/02/11 00:12:41;;;;;;;36.22;6.40;;;5.90;99.90;;;;;;6187883;23;20016;-82
2023/02/11 00:15:08;;;;;;;41.63;7.32;;;6.30;99.90;;;;;;6186484;23;20324;-82
2023/02/11 00:17:34;;;;;;;35.60;7.72;;;6.00;99.90;;;;;;6163101;23;20088;-82
2023/02/11 00:20:00;;;;;;;34.67;7.22;;;6.00;99.90;;;;;;6198531;23;20075;-82
2023/02/11 00:22:25;;;;;;;37.40;7.30;;;6.40;99.90;;;;;;6186708;23;20024;-84
2023/02/11 00:24:51;;;;;;;33.47;7.38;;;6.40;99.90;;;;;;6162899;23;20412;-84
2023/02/11 00:27:17;;;;;;;38.55;8.07;;;6.00;99.90;;;;;;6162557;23;20099;-82
2023/02/11 00:29:42;;;;;;;32.17;7.05;;;6.50;99.90;;;;;;6187198;23;20046;-85
2023/02/11 00:32:09;;;;;;;45.35;7.97;;;6.00;99.90;;;;;;6187784;23;20013;-84
2023/02/11 00:34:35;;;;;;;31.27;6.65;;;6.40;99.90;;;;;;6163374;23;20036;-83
2023/02/11 00:37:01;;;;;;;36.78;7.22;;;6.10;99.90;;;;;;6162518;23;20031;-83
2023/02/11 00:39:27;;;;;;;39.28;7.78;;;6.40;99.90;;;;;;6187854;23;20172;-83
2023/02/11 00:41:52;;;;;;;38.00;7.65;;;6.00;99.90;;;;;;6214862;23;20070;-80
2023/02/11 00:44:18;;;;;;;39.33;8.50;;;6.30;99.90;;;;;;6187743;23;20123;-86
2023/02/11 00:46:44;;;;;;;34.95;7.95;;;6.20;99.90;;;;;;6162175;23;20429;-85
2023/02/11 00:49:10;;;;;;;24.90;6.93;;;6.00;99.90;;;;;;6187667;23;20032;-83
2023/02/11 00:51:35;;;;;;;34.25;7.88;;;6.40;99.90;;;;;;6215190;23;20127;-82
2023/02/11 00:54:01;;;;;;;31.70;8.45;;;6.60;99.90;;;;;;6187663;23;20016;-83
2023/02/11 00:56:27;;;;;;;39.03;8.90;;;6.50;99.90;;;;;;6161343;23;20095;-83
2023/02/11 00:58:52;;;;;;;37.05;8.20;;;6.10;99.90;;;;;;6214524;23;20086;-80
2023/02/11 01:01:19;;;;;;;35.92;9.02;;;6.10;99.90;;;;;;6162447;23;20497;-82
2023/02/11 01:03:44;;;;;;;23.65;8.50;;;6.40;99.90;;;;;;6187060;23;20175;-82
2023/02/11 01:06:10;;;;;;;34.38;8.63;;;6.10;99.90;;;;;;6186795;23;20076;-82
2023/02/11 01:08:37;;;;;;;42.22;8.95;;;6.60;99.90;;;;;;6184041;23;20444;-82
2023/02/11 01:11:09;;;;;;;31.08;8.50;;;6.50;99.90;;;;;;6186647;23;20158;-84
2023/02/11 01:13:36;;;;;;;39.55;8.77;;;6.50;99.90;;;;;;6186947;23;20286;-85
2023/02/11 01:16:02;;;;;;;45.20;9.75;;;6.10;99.90;;;;;;6187592;23;20019;-84
2023/02/11 01:18:28;;;;;;;31.30;9.30;;;6.10;99.90;;;;;;6187751;23;20291;-84
2023/02/11 01:20:53;;;;;;;40.95;8.75;;;6.40;99.90;;;;;;6194552;23;20017;-83
2023/02/11 01:23:20;;;;;;;41.80;9.55;;;6.40;99.90;;;;;;6187406;23;20338;-83
2023/02/11 01:25:46;;;;;;;31.58;9.50;;;6.40;99.90;;;;;;6212545;23;20016;-84
2023/02/11 01:28:19;;;;;;;34.50;8.93;;;6.40;99.90;;;;;;6211837;23;20509;-86
2023/02/11 01:30:45;;;;;;;40.28;9.77;;;6.10;99.90;;;;;;6186525;23;20020;-85
2023/02/11 01:33:11;;;;;;;25.77;7.18;;;6.00;99.90;;;;;;6211669;23;20043;-84
2023/02/11 01:35:38;;;;;;;35.42;9.15;;;6.60;99.90;;;;;;6212753;23;20506;-85
2023/02/11 01:38:03;;;;;;;28.80;9.35;;;6.10;99.90;;;;;;6185791;23;20020;-83
2023/02/11 01:40:29;;;;;;;34.03;9.05;;;6.00;99.90;;;;;;6187372;23;20059;-85
2023/02/11 01:42:55;;;;;;;32.25;9.73;;;6.40;99.90;;;;;;6212279;23;20016;-82
2023/02/11 01:45:48;;;;;;;40.45;10.00;;;6.30;99.90;;;;;;6212281;23;20019;-82
2023/02/11 01:48:23;;;;;;;45.72;10.55;;;6.40;99.90;;;;;;6185535;23;20298;-83
2023/02/11 01:50:52;;;;;;;44.35;11.27;;;6.40;99.90;;;;;;6188089;23;20028;-82
2023/02/11 01:58:52;;;;;;;34.60;10.68;;;5.90;99.90;;;;;;6097771;23;20021;-84
2023/02/11 02:01:23;;;;;;;31.33;11.18;;;6.00;99.90;;;;;;6097618;23;20024;-83
2023/02/11 02:03:52;;;;;;;40.75;10.98;;;6.40;99.90;;;;;;6097676;23;20032;-82
2023/02/11 02:06:25;;;;;;;43.67;11.57;;;6.50;99.90;;;;;;6095942;23;20025;-84
2023/02/11 02:09:01;;;;;;;40.28;11.02;;;5.90;99.90;;;;;;6096402;23;20018;-81
2023/02/11 02:11:26;;;;;;;30.40;9.70;;;6.40;99.90;;;;;;6073583;23;20100;-84
2023/02/11 02:13:52;;;;;;;35.63;11.93;;;6.30;99.90;;;;;;6096649;23;20029;-81
2023/02/11 02:16:21;;;;;;;40.90;11.95;;;6.00;99.90;;;;;;6120288;23;20017;-82
2023/02/11 02:19:14;;;;;;;42.83;11.73;;;6.20;99.90;;;;;;6071361;23;20096;-85
2023/02/11 02:22:09;;;;;;;37.42;11.52;;;6.30;99.90;;;;;;6071423;23;20026;-84
2023/02/11 02:25:03;;;;;;;33.58;11.85;;;6.30;99.90;;;;;;6072777;23;20193;-84
2023/02/11 02:28:04;;;;;;;53.00;13.15;;;5.80;99.90;;;;;;6121229;23;20128;-86
2023/02/11 02:30:56;;;;;;;33.58;11.73;;;6.50;99.90;;;;;;6064052;23;20429;-81
2023/02/11 02:33:24;;;;;;;43.70;12.32;;;6.10;99.90;;;;;;6077191;23;20875;-81
2023/02/11 02:36:04;;;;;;;29.90;9.45;;;5.80;99.90;;;;;;6043642;23;20018;-81
2023/02/11 02:38:36;;;;;;;51.83;12.90;;;6.00;99.90;;;;;;6067638;23;20021;-85
2023/02/11 02:41:11;;;;;;;39.40;13.63;;;6.30;99.90;;;;;;6067351;23;20098;-84
2023/02/11 02:43:40;;;;;;;42.10;13.48;;;6.40;99.90;;;;;;6092752;23;20018;-81
2023/02/11 02:46:15;;;;;;;41.83;12.30;;;6.20;99.90;;;;;;6065936;23;20018;-84
2023/02/11 02:48:42;;;;;;;43.83;12.68;;;5.80;99.90;;;;;;6091070;23;20021;-82
2023/02/11 02:51:47;;;;;;;41.95;12.98;;;6.50;99.90;;;;;;6068746;23;20029;-80
2023/02/11 02:54:32;;;;;;;48.53;14.93;;;6.30;99.90;;;;;;6067847;23;20025;-84
2023/02/11 02:57:16;;;;;;;36.78;12.45;;;6.00;99.90;;;;;;6042523;23;20057;-83
2023/02/11 02:59:47;;;;;;;38.45;13.10;;;6.30;99.90;;;;;;6068781;23;20022;-84
2023/02/11 03:02:30;;;;;;;50.05;14.25;;;5.90;99.90;;;;;;6046386;23;20138;-80
2023/02/11 03:05:14;;;;;;;47.13;15.25;;;6.00;99.90;;;;;;6179314;23;20406;-81
2023/02/11 03:07:53;;;;;;;44.97;14.80;;;5.90;99.90;;;;;;6185680;23;20016;-81
2023/02/11 03:10:25;;;;;;;43.03;14.88;;;6.40;99.90;;;;;;6188297;23;20337;-83
2023/02/11 03:12:53;;;;;;;42.67;14.88;;;6.40;99.90;;;;;;6212795;23;20084;-85
2023/02/11 03:15:21;;;;;;;45.33;16.23;;;5.90;99.90;;;;;;6212726;23;20012;-82
2023/02/11 03:17:50;;;;;;;38.95;15.98;;;5.90;99.90;;;;;;6212444;23;20016;-83
2023/02/11 03:20:18;;;;;;;51.10;16.55;;;6.10;99.90;;;;;;6213341;23;20024;-81
2023/02/11 03:22:54;;;;;;;45.42;17.35;;;6.00;99.90;;;;;;6185355;23;20448;-83
2023/02/11 03:25:25;;;;;;;50.72;16.60;;;6.30;99.90;;;;;;6186483;23;20220;-82
2023/02/11 03:28:13;;;;;;;41.08;16.02;;;6.00;99.90;;;;;;6185150;23;20016;-81
2023/02/11 03:30:52;;;;;;;41.33;16.50;;;6.00;99.90;;;;;;6068115;23;20129;-83
2023/02/11 03:33:27;;;;;;;49.25;16.52;;;6.20;99.90;;;;;;6091620;23;20086;-81
2023/02/11 03:35:59;;;;;;;;;;;6.60;99.90;;;;;;6068871;23;20010;-84
2023/02/11 03:38:32;;;;;;;43.70;16.65;;;6.40;99.90;;;;;;6043365;23;19921;-82
2023/02/11 03:41:00;;;;;;;40.08;16.92;;;6.40;99.90;;;;;;6076771;23;20015;-80
2023/02/11 03:43:43;;;;;;;46.40;18.67;;;6.40;99.90;;;;;;6093713;23;20136;-83
2023/02/11 03:46:10;;;;;;;48.72;18.45;;;6.20;99.90;;;;;;6042298;23;20094;-81
2023/02/11 03:48:42;;;;;;;46.13;18.83;;;6.10;99.90;;;;;;6066236;23;20396;-81
2023/02/11 03:51:10;;;;;;;55.40;20.00;;;6.60;99.90;;;;;;6068409;23;20015;-83
2023/02/11 03:53:38;;;;;;;42.40;18.38;;;6.00;99.90;;;;;;6043877;23;20209;-81
2023/02/11 03:56:07;;;;;;;49.03;19.83;;;6.60;99.90;;;;;;6065407;23;20030;-85
2023/02/11 03:58:33;;;;;;;42.63;17.52;;;6.40;99.90;;;;;;6042494;23;20010;-83
2023/02/11 04:01:00;;;;;;;47.60;20.42;;;6.30;99.90;;;;;;6067055;23;20033;-83
2023/02/11 04:03:44;;;;;;;57.17;21.13;;;6.70;99.90;;;;;;6067759;23;20026;-81
2023/02/11 04:06:10;;;;;;;50.58;20.52;;;6.60;99.90;;;;;;6091873;23;20458;-83
2023/02/11 04:08:35;;;;;;;47.80;21.05;;;6.80;99.90;;;;;;6167876;23;20400;-81
2023/02/11 04:11:01;;;;;;;46.05;20.20;;;6.40;99.90;;;;;;6187032;23;20386;-83
2023/02/11 04:13:27;;;;;;;56.30;21.98;;;6.50;99.90;;;;;;6198496;23;20381;-82
2023/02/11 04:15:52;;;;;;;55.80;22.65;;;6.30;99.90;;;;;;6187915;23;20012;-82
2023/02/11 04:18:18;;;;;;;49.85;22.55;;;6.80;99.90;;;;;;6185952;23;20012;-82
2023/02/11 04:20:43;;;;;;;55.17;23.38;;;6.30;99.90;;;;;;6191119;23;20314;-82
2023/02/11 04:23:09;;;;;;;53.30;22.77;;;6.50;99.90;;;;;;6212535;23;20017;-82
2023/02/11 04:25:35;;;;;;;57.47;23.80;;;6.30;99.90;;;;;;6211383;23;20048;-84
2023/02/11 04:28:01;;;;;;;53.05;23.92;;;6.40;99.90;;;;;;6208816;23;20013;-82
2023/02/11 04:30:27;;;;;;;50.30;23.08;;;6.40;99.90;;;;;;6209513;23;20027;-83
2023/02/11 04:32:53;;;;;;;46.42;22.27;;;7.00;99.90;;;;;;6185084;23;20019;-83
2023/02/11 04:35:19;;;;;;;54.03;23.33;;;6.60;99.90;;;;;;6211128;23;20020;-82
2023/02/11 04:37:45;;;;;;;59.22;23.98;;;6.60;99.90;;;;;;6185990;23;20095;-83
2023/02/11 04:40:11;;;;;;;48.63;22.20;;;7.10;99.90;;;;;;6210188;23;20017;-84
2023/02/11 04:42:37;;;;;;;54.08;23.67;;;7.00;99.90;;;;;;6210984;23;20012;-82
2023/02/11 04:45:03;;;;;;;53.83;22.60;;;7.20;99.90;;;;;;6211209;23;20044;-81
2023/02/11 04:47:28;;;;;;;48.85;22.50;;;6.90;99.90;;;;;;6186122;23;20075;-80
2023/02/11 04:49:54;;;;;;;47.83;22.70;;;6.70;99.90;;;;;;6212404;23;20020;-78
2023/02/11 04:52:20;;;;;;;52.67;23.83;;;6.60;99.90;;;;;;6188125;23;20103;-82
2023/02/11 04:54:45;;;;;;;47.10;23.92;;;6.60;99.90;;;;;;6212702;23;20009;-84
2023/02/11 04:57:11;;;;;;;51.80;23.38;;;6.70;99.90;;;;;;6215319;23;20345;-83
2023/02/11 04:59:37;;;;;;;53.53;24.55;;;7.10;99.90;;;;;;6214895;23;20061;-81
2023/02/11 05:02:03;;;;;;;58.47;23.70;;;7.20;99.90;;;;;;6215656;23;20013;-82
2023/02/11 05:04:28;;;;;;;56.60;24.40;;;6.70;99.90;;;;;;6215722;23;20040;-81
2023/02/11 05:06:54;;;;;;;56.58;23.63;;;7.10;99.90;;;;;;6217083;23;20032;-82
2023/02/11 05:09:20;;;;;;;49.83;24.02;;;6.70;99.90;;;;;;6214260;23;20679;-82
2023/02/11 05:11:45;;;;;;;55.17;24.13;;;7.10;99.90;;;;;;6216316;23;20009;-81
2023/02/11 05:14:11;;;;;;;54.17;24.27;;;7.20;99.90;;;;;;6189023;23;20016;-84
2023/02/11 05:16:37;;;;;;;48.83;24.42;;;6.80;99.90;;;;;;6212874;23;20083;-82
2023/02/11 05:19:03;;;;;;;54.20;24.50;;;6.80;99.90;;;;;;6212420;23;20053;-81
2023/02/11 05:21:29;;;;;;;53.67;24.70;;;7.00;99.90;;;;;;6212591;23;20012;-85
2023/02/11 05:23:54;;;;;;;53.28;24.38;;;6.80;99.90;;;;;;6211643;23;20115;-85
2023/02/11 05:26:20;;;;;;;55.88;24.27;;;7.10;99.90;;;;;;6212710;23;20023;-84
2023/02/11 05:28:46;;;;;;;45.05;19.95;;;6.80;99.90;;;;;;6212200;23;20100;-83
2023/02/11 05:31:13;;;;;;;60.08;25.45;;;7.10;99.90;;;;;;6211879;23;20016;-82
2023/02/11 05:33:40;;;;;;;54.55;24.60;;;6.50;99.90;;;;;;6213334;23;20447;-80
2023/02/11 05:36:08;;;;;;;49.40;23.30;;;6.60;99.90;;;;;;6211553;23;20023;-80
2023/02/11 05:38:35;;;;;;;54.85;23.77;;;6.50;99.90;;;;;;6210080;23;20091;-83
2023/02/11 05:41:01;;;;;;;48.75;22.75;;;6.70;99.90;;;;;;6210977;23;20005;-79
2023/02/11 05:43:27;;;;;;;52.15;23.25;;;7.10;99.90;;;;;;6212293;23;20017;-82
2023/02/11 05:45:53;;;;;;;49.92;21.92;;;7.10;99.90;;;;;;6187799;23;20013;-81
2023/02/11 05:48:18;;;;;;;50.00;22.48;;;7.20;99.90;;;;;;6212342;23;20020;-82
2023/02/11 05:50:44;;;;;;;53.10;22.42;;;6.90;99.90;;;;;;6187665;23;20403;-79
2023/02/11 05:53:11;;;;;;;47.53;21.65;;;6.70;99.90;;;;;;6214040;23;20020;-82
2023/02/11 05:55:37;;;;;;;45.63;22.45;;;7.00;99.90;;;;;;6213238;23;20066;-81
2023/02/11 05:58:03;;;;;;;48.25;21.70;;;6.60;99.90;;;;;;6213202;23;20012;-81
2023/02/11 06:00:28;;;;;;;55.33;22.33;;;6.50;99.90;;;;;;6186988;23;20162;-82
2023/02/11 06:02:54;;;;;;;50.35;22.83;;;7.10;99.90;;;;;;6211484;23;20012;-80
2023/02/11 06:05:20;;;;;;;45.17;21.58;;;7.10;99.90;;;;;;6213457;23;20430;-82
2023/02/11 06:07:45;;;;;;;52.95;21.75;;;6.50;99.90;;;;;;6211629;23;20088;-83
2023/02/11 06:10:11;;;;;;;58.35;22.55;;;7.00;99.90;;;;;;6212288;23;20016;-81
2023/02/11 06:12:38;;;;;;;46.95;21.42;;;6.90;99.90;;;;;;6210530;23;20048;-82
2023/02/11 06:15:05;;;;;;;48.80;20.00;;;7.10;99.90;;;;;;6212145;23;20106;-84
2023/02/11 06:17:32;;;;;;;47.33;21.13;;;6.80;99.90;;;;;;6212021;23;20726;-81
2023/02/11 06:20:00;;;;;;;44.65;20.55;;;6.70;99.90;;;;;;6186527;23;20013;-79
2023/02/11 06:22:26;;;;;;;46.15;21.10;;;6.60;99.90;;;;;;6161052;23;20155;-82
2023/02/11 06:24:52;;;;;;;33.85;17.83;;;7.20;99.90;;;;;;6185416;23;20016;-84
2023/02/11 06:27:18;;;;;;;43.70;19.77;;;7.00;99.90;;;;;;6214500;23;20017;-84
2023/02/11 06:29:45;;;;;;;48.40;20.85;;;7.10;99.90;;;;;;6214482;23;20329;-80
2023/02/11 06:32:11;;;;;;;44.03;20.63;;;7.10;99.90;;;;;;6162662;23;20016;-79
2023/02/11 06:34:55;;;;;;;43.83;20.52;;;6.60;99.90;;;;;;6166628;23;20378;-82
2023/02/11 06:37:21;;;;;;;52.08;20.88;;;7.20;99.90;;;;;;6161379;23;20016;-81
2023/02/11 06:39:46;;;;;;;50.35;21.30;;;6.60;99.90;;;;;;6160180;23;20031;-85
2023/02/11 06:42:12;;;;;;;47.10;20.63;;;7.10;99.90;;;;;;6185376;23;20343;-82
2023/02/11 06:44:38;;;;;;;42.30;20.45;;;7.10;99.90;;;;;;6186828;23;20012;-79
2023/02/11 06:47:03;;;;;;;41.25;20.55;;;6.60;99.90;;;;;;6186590;23;20027;-80
2023/02/11 06:49:29;;;;;;;50.35;22.23;;;6.80;99.90;;;;;;6185316;23;20088;-82
2023/02/11 06:51:55;;;;;;;43.50;20.38;;;6.60;99.90;;;;;;6188379;23;20083;-81
2023/02/11 06:54:21;;;;;;;49.33;21.13;;;7.10;99.90;;;;;;6187351;23;20016;-81
2023/02/11 06:56:46;;;;;;;45.22;21.00;;;6.60;99.90;;;;;;6185581;23;20275;-80
2023/02/11 06:59:15;;;;;;;46.63;21.05;;;7.20;99.90;;;;;;6187749;23;20038;-82
2023/02/11 07:01:41;;;;;;;47.17;21.95;;;7.20;99.90;;;;;;6161642;23;20083;-82
2023/02/11 07:04:07;;;;;;;47.40;21.42;;;7.00;99.90;;;;;;6161544;23;20130;-83
2023/02/11 07:06:33;;;;;;;46.85;20.50;;;7.20;99.90;;;;;;6160772;23;20023;-83
2023/02/11 07:08:58;;;;;;;43.05;20.58;;;6.90;99.90;;;;;;6162240;23;20050;-81
2023/02/11 07:11:27;;;;;;;42.17;20.00;;;7.00;99.90;;;;;;6160159;23;20087;-81
2023/02/11 07:13:58;;;;;;;51.42;20.95;;;6.90;99.90;;;;;;6161504;23;20051;-80
2023/02/11 07:16:23;;;;;;;41.05;21.13;;;6.90;99.90;;;;;;6185587;23;20070;-82
2023/02/11 07:18:49;;;;;;;41.97;20.27;;;7.20;99.90;;;;;;6186727;23;20009;-81
2023/02/11 07:21:18;;;;;;;36.30;20.13;;;6.90;99.90;;;;;;6196697;23;20028;-81
2023/02/11 07:23:45;;;;;;;42.83;20.65;;;7.30;99.90;;;;;;6210685;23;20027;-81
2023/02/11 07:26:14;;;;;;;34.95;17.90;;;7.10;99.90;;;;;;6185823;23;20099;-80
2023/02/11 07:28:42;;;;;;;43.40;21.02;;;7.10;99.90;;;;;;6185945;23;20038;-81
2023/02/11 07:31:09;;;;;;;32.15;15.48;;;7.30;99.90;;;;;;6186157;23;20016;-82
2023/02/11 07:33:38;;;;;;;28.55;13.52;;;7.10;99.90;;;;;;6209750;23;20013;-84
2023/02/11 07:36:06;;;;;;;38.28;19.52;;;7.70;99.90;;;;;;6208607;23;20468;-80
2023/02/11 07:38:33;;;;;;;35.65;19.35;;;7.20;99.90;;;;;;6183780;23;20029;-81
2023/02/11 07:41:00;;;;;;;40.80;18.73;;;7.60;99.90;;;;;;6185393;23;20008;-82
2023/02/11 07:43:26;;;;;;;29.75;15.20;;;7.30;99.90;;;;;;6184135;23;20048;-80
2023/02/11 07:45:52;;;;;;;37.30;15.38;;;7.60;99.90;;;;;;6182179;23;20091;-80
2023/02/11 07:48:17;;;;;;;33.53;18.48;;;7.30;99.90;;;;;;6207867;23;20094;-82
2023/02/11 07:50:43;;;;;;;32.78;17.58;;;7.70;99.90;;;;;;6182844;23;20017;-80
2023/02/11 07:53:09;;;;;;;35.53;16.38;;;7.70;99.90;;;;;;6205608;23;20124;-80
2023/02/11 07:55:35;;;;;;;34.13;17.42;;;7.50;99.90;;;;;;6208364;23;20367;-82
2023/02/11 07:58:00;;;;;;;37.60;17.27;;;7.70;99.90;;;;;;6203966;23;20017;-84
2023/02/11 08:00:26;;;;;;;35.20;17.17;;;7.70;99.90;;;;;;6206683;23;20447;-80
2023/02/11 08:02:52;;;;;;;39.58;16.95;;;7.40;99.90;;;;;;6180047;23;20016;-82
2023/02/11 08:05:17;;;;;;;32.58;16.75;;;7.80;99.90;;;;;;6181018;23;20086;-80
2023/02/11 08:07:43;;;;;;;40.17;16.95;;;7.80;99.90;;;;;;6203146;23;20028;-83
2023/02/11 08:10:09;;;;;;;31.83;16.30;;;7.60;99.90;;;;;;6181659;23;20021;-81
2023/02/11 08:12:34;;;;;;;28.55;14.63;;;7.80;99.90;;;;;;6181591;23;20092;-84
2023/02/11 08:15:00;;;;;;;35.08;15.25;;;7.70;99.90;;;;;;6205782;23;20021;-81
2023/02/11 08:17:26;;;;;;;37.40;16.02;;;7.40;99.90;;;;;;6206644;23;20090;-81
2023/02/11 08:19:52;;;;;;;37.38;16.33;;;7.90;99.90;;;;;;6179720;23;20484;-82
2023/02/11 08:22:17;;;;;;;34.90;15.48;;;7.40;99.90;;;;;;6208243;23;20278;-83
2023/02/11 08:24:43;;;;;;;34.38;15.18;;;7.70;99.90;;;;;;6183339;23;20016;-84
2023/02/11 08:27:09;;;;;;;26.42;13.38;;;7.60;99.90;;;;;;6185606;23;20013;-84
2023/02/11 08:29:35;;;;;;;35.55;14.48;;;8.00;99.90;;;;;;6188170;23;20056;-85
2023/02/11 08:32:01;;;;;;;34.45;14.98;;;7.80;99.90;;;;;;6188120;23;20436;-84
2023/02/11 08:34:27;;;;;;;36.10;13.90;;;7.50;99.90;;;;;;6186380;23;20016;-82
2023/02/11 08:36:53;;;;;;;32.20;13.20;;;8.10;99.90;;;;;;6211371;23;20032;-82
2023/02/11 08:39:20;;;;;;;33.38;15.07;;;7.80;99.90;;;;;;6211110;23;20042;-85
2023/02/11 08:41:52;;;;;;;31.42;14.05;;;8.20;99.90;;;;;;6209118;23;20012;-85
2023/02/11 08:44:19;;;;;;;35.25;14.93;;;7.80;99.90;;;;;;6212614;23;20023;-84
2023/02/11 08:46:45;;;;;;;32.63;13.98;;;7.70;99.90;;;;;;6185809;23;20292;-87
2023/02/11 08:49:11;;;;;;;34.08;14.35;;;7.90;99.90;;;;;;6182333;23;20889;-82
2023/02/11 08:51:36;;;;;;;35.50;14.35;;;8.30;99.90;;;;;;6208000;23;20060;-82
2023/02/11 08:54:03;;;;;;;28.80;12.70;;;7.90;99.90;;;;;;6183901;23;20044;-83
2023/02/11 08:56:30;;;;;;;28.45;13.00;;;8.30;99.90;;;;;;6181517;23;20028;-83
2023/02/11 08:58:56;;;;;;;29.45;12.48;;;8.20;99.90;;;;;;6187078;23;20012;-82
2023/02/11 09:01:25;;;;;;;30.65;12.50;;;7.90;99.90;;;;;;6187480;23;20020;-83
2023/02/11 09:03:51;;;;;;;23.85;9.82;;;7.90;99.90;;;;;;6212446;23;20408;-83
2023/02/11 09:06:17;;;;;;;30.50;12.40;;;8.50;99.90;;;;;;6213069;23;20088;-83
2023/02/11 09:08:46;;;;;;;31.98;11.98;;;8.40;99.90;;;;;;6211941;23;20013;-84
2023/02/11 09:11:12;;;;;;;26.30;11.25;;;8.00;99.90;;;;;;6187337;23;20013;-82
2023/02/11 09:13:40;;;;;;;31.38;12.38;;;8.50;99.90;;;;;;6188437;23;20013;-83
2023/02/11 09:16:06;;;;;;;30.15;11.50;;;8.10;99.90;;;;;;6212272;23;20281;-82
2023/02/11 09:18:32;;;;;;;32.03;11.43;;;8.40;99.90;;;;;;6186791;23;20047;-84
2023/02/11 09:21:02;;;;;;;26.13;10.48;;;8.50;99.90;;;;;;6187398;23;20004;-83
2023/02/11 09:23:28;;;;;;;28.08;10.77;;;8.20;99.90;;;;;;6211049;23;20454;-82
2023/02/11 09:25:54;;;;;;;26.52;10.65;;;8.40;99.90;;;;;;6188124;23;20444;-84
2023/02/11 09:28:20;;;;;;;30.98;10.95;;;8.20;99.90;;;;;;6212208;23;20025;-84
2023/02/11 09:30:45;;;;;;;26.98;10.55;;;8.20;99.90;;;;;;6187539;23;20050;-86
2023/02/11 09:33:11;;;;;;;25.58;10.60;;;8.20;99.90;;;;;;6186579;23;20017;-85
2023/02/11 09:35:37;;;;;;;24.77;10.00;;;8.30;99.90;;;;;;6188516;23;20013;-85
2023/02/11 09:38:02;;;;;;;23.33;9.23;;;8.30;99.90;;;;;;6184167;23;20067;-82
2023/02/11 09:40:28;;;;;;;33.45;10.43;;;8.80;99.90;;;;;;6182650;23;20027;-84
2023/02/11 09:43:10;;;;;;;25.23;9.95;;;8.80;99.90;;;;;;6207600;23;20099;-83
2023/02/11 09:45:36;;;;;;;23.15;8.98;;;8.90;99.90;;;;;;6210455;23;20021;-83
2023/02/11 09:48:21;;;;;;;30.95;10.20;;;8.90;99.90;;;;;;6185030;23;20131;-83
2023/02/11 09:50:56;;;;;;;;;;;8.70;99.90;;;;;;6186351;23;20698;-83
2023/02/11 09:53:34;;;;;;;28.35;9.65;;;8.70;99.90;;;;;;6187787;23;19934;-86
2023/02/11 09:56:08;;;;;;;27.10;9.60;;;9.00;99.90;;;;;;6187875;23;20044;-82
2023/02/11 09:58:37;;;;;;;22.80;7.63;;;9.10;99.90;;;;;;6211122;23;20112;-83
2023/02/11 10:01:16;;;;;;;23.88;8.75;;;9.00;99.90;;;;;;6184784;23;20021;-83
2023/02/11 10:03:41;;;;;;;26.10;8.43;;;8.80;99.90;;;;;;6194876;23;20019;-82
2023/02/11 10:06:45;;;;;;;26.67;8.85;;;8.80;99.90;;;;;;6184084;23;20013;-82
2023/02/11 10:09:13;;;;;;;25.83;8.73;;;9.10;99.90;;;;;;6184310;23;20112;-83
2023/02/11 10:12:01;;;;;;;23.77;7.95;;;9.10;99.90;;;;;;6211456;23;20017;-83
2023/02/11 10:14:35;;;;;;;28.20;8.48;;;8.90;99.90;;;;;;6212252;23;20441;-82
2023/02/11 10:17:38;;;;;;;19.20;7.78;;;9.10;99.90;;;;;;6186645;23;20013;-83
2023/02/11 10:23:41;;;;;;;30.92;8.43;;;8.90;99.90;;;;;;6215461;23;20025;-82
2023/02/11 10:26:18;;;;;;;25.90;7.45;;;8.90;99.90;;;;;;6220219;23;20344;-81
2023/02/11 10:28:47;;;;;;;19.00;6.97;;;9.30;99.90;;;;;;6212957;23;20397;-81
2023/02/11 10:31:18;;;;;;;23.75;6.75;;;9.20;99.90;;;;;;6219222;23;20028;-82
2023/02/11 10:34:08;;;;;;;23.30;6.85;;;9.50;99.90;;;;;;6189184;23;20027;-82
2023/02/11 10:36:37;;;;;;;34.67;7.47;;;9.50;99.90;;;;;;6216857;23;20012;-86
2023/02/11 10:39:14;;;;;;;24.15;6.55;;;9.30;99.90;;;;;;6209305;23;20009;-81
2023/02/11 10:41:47;;;;;;;26.75;6.03;;;9.60;99.90;;;;;;6157887;23;20052;-85
2023/02/11 10:44:30;;;;;;;21.83;6.63;;;9.50;99.90;;;;;;6207354;23;20035;-84
2023/02/11 10:46:58;;;;;;;27.10;6.60;;;9.60;99.90;;;;;;6211215;23;20050;-83
2023/02/11 10:49:33;;;;;;;21.10;6.03;;;9.50;99.90;;;;;;6182947;23;20016;-81
2023/02/11 10:52:18;;;;;;;;;;;9.70;99.90;;;;;;6213658;23;20028;-81
2023/02/11 10:55:09;;;;;;;22.60;5.50;;;9.50;99.90;;;;;;6182118;23;19915;-84
2023/02/11 10:57:37;;;;;;;22.73;5.25;;;9.60;99.90;;;;;;6207014;23;20009;-82
2023/02/11 11:00:37;;;;;;;23.27;5.18;;;9.50;99.90;;;;;;6207593;23;20009;-80
2023/02/11 11:03:17;;;;;;;15.05;4.20;;;9.80;99.90;;;;;;6206404;23;20475;-79
2023/02/11 11:05:53;;;;;;;20.02;5.05;;;9.50;99.90;;;;;;6182186;23;20391;-84
2023/02/11 11:08:20;;;;;;;20.52;4.30;;;9.80;99.90;;;;;;6181936;23;20034;-80
2023/02/11 11:11:02;;;;;;;18.60;4.30;;;9.70;99.90;;;;;;6185597;23;20039;-83
2023/02/11 11:13:35;;;;;;;19.23;4.22;;;9.50;99.90;;;;;;6209751;23;20027;-81
2023/02/11 11:16:13;;;;;;;26.25;4.75;;;9.70;99.90;;;;;;6186652;23;20028;-81
2023/02/11 11:18:44;;;;;;;23.70;4.43;;;9.70;99.90;;;;;;6185458;23;20467;-83
2023/02/11 11:21:25;;;;;;;17.50;4.22;;;9.40;99.90;;;;;;6212101;23;20021;-83
2023/02/11 11:23:55;;;;;;;19.42;4.07;;;9.40;99.90;;;;;;6210239;23;20402;-81
2023/02/11 11:26:22;;;;;;;23.15;4.88;;;9.70;99.90;;;;;;6210907;23;20016;-82
2023/02/11 11:28:53;;;;;;;19.15;4.38;;;9.80;99.90;;;;;;6186819;23;20012;-82
2023/02/11 11:31:47;;;;;;;20.95;4.68;;;9.50;99.90;;;;;;6184287;23;20027;-81
2023/02/11 11:34:37;;;;;;;17.60;4.05;;;9.50;99.90;;;;;;6095892;23;20053;-85
2023/02/11 11:37:33;;;;;;;22.63;4.00;;;9.50;99.90;;;;;;6097535;23;20015;-79
2023/02/11 11:40:07;;;;;;;21.30;4.45;;;9.50;99.90;;;;;;6088605;23;20402;-81
2023/02/11 11:42:35;;;;;;;12.95;3.13;;;9.80;99.90;;;;;;6091529;23;20014;-80
2023/02/11 11:45:23;;;;;;;23.98;4.97;;;9.60;99.90;;;;;;6090504;23;20092;-81
2023/02/11 11:48:26;;;;;;;24.13;4.60;;;9.90;99.90;;;;;;6092192;23;20020;-81
2023/02/11 11:51:04;;;;;;;20.05;3.30;;;10.00;99.90;;;;;;6090874;23;20020;-81
2023/02/11 11:53:39;;;;;;;16.50;2.95;;;9.80;99.90;;;;;;6090253;23;20097;-81
2023/02/11 11:56:13;;;;;;;22.27;4.05;;;9.80;99.90;;;;;;6067970;23;20416;-82
2023/02/11 11:58:39;;;;;;;13.33;3.20;;;10.10;99.90;;;;;;6092199;23;20022;-82
2023/02/11 12:01:29;;;;;;;16.95;4.00;;;9.90;99.90;;;;;;6090912;23;20020;-82
2023/02/11 12:04:37;;;;;;;17.77;3.60;;;10.20;99.90;;;;;;6092560;23;20049;-81
2023/02/11 12:07:42;;;;;;;18.88;3.55;;;10.20;99.90;;;;;;6094046;23;20121;-82
2023/02/11 12:10:13;;;;;;;23.92;3.75;;;10.00;99.90;;;;;;6039796;23;20018;-84
2023/02/11 12:12:54;;;;;;;20.98;3.67;;;10.10;99.90;;;;;;6041199;23;20026;-81
2023/02/11 12:15:38;;;;;;;17.00;3.30;;;10.00;99.90;;;;;;6045573;23;20015;-81
2023/02/11 12:18:42;;;;;;;21.57;3.43;;;10.00;99.90;;;;;;6123113;23;20024;-84
2023/02/11 12:21:26;;;;;;;21.67;4.55;;;10.30;99.90;;;;;;6099494;23;20013;-84
2023/02/11 12:24:13;;;;;;;21.75;3.58;;;10.10;99.90;;;;;;6099227;23;20095;-82
2023/02/11 12:26:56;;;;;;;19.25;3.05;;;10.00;99.90;;;;;;6097208;23;20022;-81
2023/02/11 12:29:27;;;;;;;18.00;3.17;;;10.30;99.90;;;;;;6120450;23;20017;-82
2023/02/11 12:32:02;;;;;;;32.10;3.53;;;10.20;99.90;;;;;;6119559;23;20017;-83
2023/02/11 12:35:09;;;;;;;23.05;3.13;;;9.90;99.90;;;;;;6145901;23;20022;-82
2023/02/11 12:38:14;;;;;;;23.40;3.80;;;10.20;99.90;;;;;;6010130;23;20015;-81
2023/02/11 12:41:01;;;;;;;26.77;5.20;;;10.00;99.90;;;;;;6033755;23;20598;-83
2023/02/11 12:43:42;;;;;;;25.73;3.90;;;10.30;99.90;;;;;;6035863;23;20026;-80
2023/02/11 12:46:30;;;;;;;22.70;3.63;;;10.00;99.90;;;;;;6038875;23;20349;-81
2023/02/11 12:49:10;;;;;;;25.25;3.55;;;10.10;99.90;;;;;;6097324;23;20064;-82
2023/02/11 12:52:11;;;;;;;13.80;3.20;;;10.00;99.90;;;;;;6148549;23;20110;-80
2023/02/11 12:54:56;;;;;;;20.13;3.45;;;10.00;99.90;;;;;;6098256;23;20014;-81
2023/02/11 12:57:25;;;;;;;21.05;3.45;;;10.40;99.90;;;;;;6147771;23;20468;-80
2023/02/11 12:59:54;;;;;;;21.00;3.28;;;10.10;99.90;;;;;;6121769;23;20068;-81
2023/02/11 13:02:49;;;;;;;17.75;3.22;;;10.30;99.90;;;;;;6121896;23;20021;-80
2023/02/11 13:05:15;;;;;;;20.02;3.45;;;10.00;99.90;;;;;;6146458;23;20087;-79
2023/02/11 13:07:44;;;;;;;18.77;3.88;;;9.80;99.90;;;;;;6142076;23;20584;-81
2023/02/11 13:10:14;;;;;;;23.90;4.47;;;10.00;99.90;;;;;;6145009;23;20619;-80